createdAt,value
2022-12-19T00:02:19.742Z,102253.94
2022-12-19T00:04:51.908Z,102255.47
2022-12-19T00:07:23.855Z,102252.34
2022-12-19T00:09:55.769Z,102245.78
2022-12-19T00:12:27.802Z,102238.16
2022-12-19T00:14:59.734Z,102233.72
2022-12-19T00:17:33.878Z,102238.88
2022-12-19T00:20:09.712Z,102234.63
2022-12-19T00:22:43.207Z,102232.13
2022-12-19T00:25:15.345Z,102227.16
2022-12-19T00:27:47.975Z,102235.88
2022-12-19T00:30:19.947Z,102224.09
2022-12-19T00:32:52.394Z,102215.84
2022-12-19T00:35:25.001Z,102220.91
2022-12-19T00:37:57.060Z,102223.28
2022-12-19T00:40:29.120Z,102226.56
2022-12-19T00:43:01.211Z,102221.69
2022-12-19T00:45:33.285Z,102211.41
2022-12-19T00:48:05.895Z,102207.59
2022-12-19T00:50:38.492Z,102208.56
2022-12-19T00:53:10.542Z,102212.22
2022-12-19T00:55:42.576Z,102204.94
2022-12-19T00:58:14.528Z,102196.31
2022-12-19T01:00:46.529Z,102192.59
2022-12-19T01:03:18.538Z,102182.56
2022-12-19T01:05:52.500Z,102179.28
2022-12-19T01:08:24.654Z,102180.16
2022-12-19T01:10:58.221Z,102175.72
2022-12-19T01:13:34.205Z,102164.75
2022-12-19T01:16:11.164Z,102170.78
2022-12-19T01:18:43.621Z,102169.25
2022-12-19T01:21:15.617Z,102161.81
2022-12-19T01:23:47.552Z,102157.22
2022-12-19T01:26:19.562Z,102145.69
2022-12-19T01:28:51.483Z,102133.72
2022-12-19T01:31:23.817Z,102133.44
2022-12-19T01:33:55.885Z,102134.69
2022-12-19T01:36:28.240Z,102136.09
2022-12-19T01:39:00.210Z,102148.06
2022-12-19T01:41:32.162Z,102138.50
2022-12-19T01:44:09.054Z,102124.47
2022-12-19T01:46:46.641Z,102120.47
2022-12-19T01:49:35.105Z,102114.88
2022-12-19T01:52:09.097Z,102104.59
2022-12-19T01:54:44.456Z,102096.06
2022-12-19T01:57:19.843Z,102100.00
2022-12-19T01:59:57.192Z,102089.88
2022-12-19T02:02:38.856Z,102089.78
2022-12-19T02:05:11.183Z,102093.16
2022-12-19T02:07:44.426Z,102082.97
2022-12-19T02:10:16.546Z,102079.94
2022-12-19T02:12:48.543Z,102085.19
2022-12-19T02:15:21.286Z,102080.22
2022-12-19T02:18:02.163Z,102075.25
2022-12-19T02:21:18.953Z,102063.97
2022-12-19T02:24:41.582Z,102067.13
2022-12-19T02:27:56.765Z,102067.69
2022-12-19T02:30:50.605Z,102067.69
2022-12-19T02:33:39.628Z,102058.78
2022-12-19T02:36:48.910Z,102054.28
2022-12-19T02:39:46.756Z,102043.50
2022-12-19T02:42:29.189Z,102046.72
2022-12-19T02:45:07.451Z,102041.03
2022-12-19T02:47:40.541Z,102040.06
2022-12-19T02:50:13.407Z,102034.56
2022-12-19T02:52:47.803Z,102036.97
2022-12-19T02:55:24.632Z,102025.34
2022-12-19T02:58:51.484Z,102032.50
2022-12-19T03:01:50.354Z,102048.44
2022-12-19T03:05:14.166Z,102048.59
2022-12-19T03:08:08.534Z,102032.91
2022-12-19T03:10:48.686Z,102036.03
2022-12-19T03:13:30.546Z,102030.41
2022-12-19T03:16:04.627Z,102021.88
2022-12-19T03:18:36.797Z,102011.66
2022-12-19T03:21:16.153Z,102009.56
2022-12-19T03:23:50.689Z,102014.81
2022-12-19T03:26:27.173Z,102021.56
2022-12-19T03:29:13.233Z,102018.34
2022-12-19T03:31:46.352Z,102010.13
2022-12-19T03:34:30.332Z,101995.28
2022-12-19T03:37:05.772Z,101990.94
2022-12-19T03:39:42.203Z,101990.69
2022-12-19T03:42:35.150Z,101991.00
2022-12-19T03:45:08.121Z,101989.28
2022-12-19T03:47:57.318Z,101981.56
2022-12-19T03:50:42.983Z,101977.53
2022-12-19T03:53:48.616Z,101962.97
2022-12-19T03:56:33.959Z,101955.53
2022-12-19T03:59:22.687Z,101956.13
2022-12-19T04:01:55.348Z,101956.25
2022-12-19T04:04:28.971Z,101961.78
2022-12-19T04:07:03.628Z,101960.84
2022-12-19T04:09:37.232Z,101955.59
2022-12-19T04:12:20.346Z,101949.13
2022-12-19T04:14:52.691Z,101944.50
2022-12-19T04:17:41.568Z,101938.47
2022-12-19T04:20:18.409Z,101935.38
2022-12-19T04:22:59.101Z,101918.16
2022-12-19T04:25:36.132Z,101919.91
2022-12-19T04:28:36.761Z,101919.63
2022-12-19T04:31:15.678Z,101917.19
2022-12-19T04:33:47.701Z,101916.69
2022-12-19T04:36:19.715Z,101905.25
2022-12-19T04:38:52.775Z,101910.13
2022-12-19T04:41:24.829Z,101902.63
2022-12-19T04:43:56.833Z,101894.16
2022-12-19T04:46:28.825Z,101886.81
2022-12-19T04:49:00.803Z,101874.88
2022-12-19T04:51:32.767Z,101873.25
2022-12-19T04:54:04.849Z,101877.13
2022-12-19T04:56:36.806Z,101871.63
2022-12-19T04:59:08.985Z,101879.16
2022-12-19T05:01:41.040Z,101868.75
2022-12-19T05:04:13.174Z,101861.47
2022-12-19T05:06:45.148Z,101858.22
2022-12-19T05:09:17.578Z,101860.78
2022-12-19T05:11:49.606Z,101864.47
2022-12-19T05:14:21.589Z,101858.78
2022-12-19T05:16:58.898Z,101849.41
2022-12-19T05:19:33.310Z,101855.38
2022-12-19T05:22:05.435Z,101848.72
2022-12-19T05:24:37.343Z,101839.22
2022-12-19T05:27:09.357Z,101839.09
2022-12-19T05:29:41.347Z,101825.09
2022-12-19T05:32:13.350Z,101833.72
2022-12-19T05:34:45.280Z,101834.88
2022-12-19T05:37:17.230Z,101826.53
2022-12-19T05:39:49.290Z,101824.84
2022-12-19T05:42:21.301Z,101826.72
2022-12-19T05:44:53.241Z,101838.22
2022-12-19T05:47:25.298Z,101830.34
2022-12-19T05:49:57.280Z,101807.81
2022-12-19T05:52:29.265Z,101813.31
2022-12-19T05:55:01.236Z,101811.59
2022-12-19T05:57:33.347Z,101813.56
2022-12-19T06:00:09.823Z,101811.88
2022-12-19T06:02:42.163Z,101803.41
2022-12-19T06:05:14.646Z,101799.19
2022-12-19T06:07:46.688Z,101794.38
2022-12-19T06:10:18.661Z,101797.16
2022-12-19T06:12:50.658Z,101788.72
2022-12-19T06:15:22.692Z,101784.25
2022-12-19T06:17:55.231Z,101782.81
2022-12-19T06:20:27.254Z,101774.31
2022-12-19T06:23:00.161Z,101776.72
2022-12-19T06:25:32.273Z,101782.88
2022-12-19T06:28:04.512Z,101775.81
2022-12-19T06:30:36.562Z,101768.84
2022-12-19T06:33:08.559Z,101767.97
2022-12-19T06:35:40.553Z,101769.03
2022-12-19T06:38:12.557Z,101770.28
2022-12-19T06:41:03.416Z,101764.19
2022-12-19T06:43:35.409Z,101757.09
2022-12-19T06:46:08.154Z,101756.47
2022-12-19T06:48:40.267Z,101750.22
2022-12-19T06:51:12.211Z,101748.94
2022-12-19T06:53:44.306Z,101744.13
2022-12-19T06:56:18.013Z,101754.56
2022-12-19T06:58:50.717Z,101749.69
2022-12-19T07:01:36.775Z,101744.53
2022-12-19T07:04:12.087Z,101752.13
2022-12-19T07:06:48.906Z,101742.16
2022-12-19T07:09:22.283Z,101749.63
2022-12-19T07:11:54.226Z,101749.75
2022-12-19T07:14:26.229Z,101757.56
2022-12-19T07:17:01.160Z,101751.28
2022-12-19T07:19:34.305Z,101759.28
2022-12-19T07:22:06.884Z,101760.09
2022-12-19T07:24:38.997Z,101752.53
2022-12-19T07:27:11.029Z,101750.41
2022-12-19T07:29:43.031Z,101757.75
2022-12-19T07:32:15.070Z,101759.47
2022-12-19T07:34:47.104Z,101764.13
2022-12-19T07:37:19.039Z,101763.13
2022-12-19T07:39:52.949Z,101757.06
2022-12-19T07:42:28.162Z,101760.03
2022-12-19T07:45:05.011Z,101752.59
2022-12-19T07:47:36.960Z,101751.72
2022-12-19T07:50:09.338Z,101756.75
2022-12-19T07:52:41.251Z,101750.34
2022-12-19T07:55:13.697Z,101743.34
2022-12-19T07:57:45.616Z,101743.09
2022-12-19T08:00:18.489Z,101743.91
2022-12-19T08:02:50.572Z,101744.72
2022-12-19T08:05:25.639Z,101738.38
2022-12-19T08:07:58.229Z,101739.44
2022-12-19T08:10:31.135Z,101734.22
2022-12-19T08:13:03.139Z,101745.00
2022-12-19T08:15:35.601Z,101734.09
2022-12-19T08:18:07.617Z,101743.03
2022-12-19T08:20:39.727Z,101737.88
2022-12-19T08:23:11.697Z,101735.94
2022-12-19T08:25:43.665Z,101740.16
2022-12-19T08:28:15.881Z,101732.72
2022-12-19T08:30:48.037Z,101736.19
2022-12-19T08:33:20.062Z,101738.00
2022-12-19T08:35:52.097Z,101734.84
2022-12-19T08:38:24.064Z,101738.31
2022-12-19T08:40:56.095Z,101725.97
2022-12-19T08:43:28.889Z,101738.31
2022-12-19T08:46:01.053Z,101720.31
2022-12-19T08:48:34.680Z,101729.06
2022-12-19T08:51:08.410Z,101722.56
2022-12-19T08:53:42.839Z,101724.94
2022-12-19T08:56:20.690Z,101726.66
2022-12-19T08:58:52.844Z,101726.25
2022-12-19T09:01:26.059Z,101724.50
2022-12-19T09:04:25.204Z,101711.81
2022-12-19T09:06:53.283Z,101720.91
2022-12-19T09:09:25.344Z,101711.53
2022-12-19T09:11:57.357Z,101706.41
2022-12-19T09:14:34.703Z,101715.22
2022-12-19T09:17:07.212Z,101712.47
2022-12-19T09:19:39.963Z,101711.75
2022-12-19T09:22:15.525Z,101715.56
2022-12-19T09:24:47.603Z,101715.09
2022-12-19T09:27:19.685Z,101708.19
2022-12-19T09:29:51.877Z,101710.94
2022-12-19T09:32:23.841Z,101710.50
2022-12-19T09:34:55.942Z,101703.09
2022-12-19T09:37:28.002Z,101700.63
2022-12-19T09:40:00.023Z,101687.84
2022-12-19T09:42:57.291Z,101688.78
2022-12-19T09:46:08.224Z,101695.81
2022-12-19T09:48:40.476Z,101690.81
2022-12-19T09:51:35.960Z,101682.06
2022-12-19T09:54:20.515Z,101675.50
2022-12-19T09:56:59.358Z,101673.78
2022-12-19T09:59:41.477Z,101665.16
2022-12-19T10:02:57.532Z,101673.34
2022-12-19T10:07:09.381Z,101674.28
2022-12-19T10:09:49.986Z,101672.03
2022-12-19T10:12:39.119Z,101680.97
2022-12-19T10:15:10.867Z,101671.00
2022-12-19T10:18:02.894Z,101674.44
2022-12-19T10:20:38.869Z,101679.88
2022-12-19T10:23:42.747Z,101664.63
2022-12-19T10:26:21.181Z,101659.38
2022-12-19T10:28:56.829Z,101658.03
2022-12-19T10:32:13.298Z,101656.22
2022-12-19T10:34:47.926Z,101654.69
2022-12-19T10:37:49.571Z,101653.81
2022-12-19T10:40:30.640Z,101657.53
2022-12-19T10:43:44.765Z,101655.28
2022-12-19T10:46:38.223Z,101651.13
2022-12-19T10:49:17.331Z,101645.31
2022-12-19T10:52:08.006Z,101649.56
2022-12-19T10:54:43.876Z,101646.44
2022-12-19T10:57:21.936Z,101652.03
2022-12-19T11:00:06.856Z,101649.72
2022-12-19T11:02:38.975Z,101642.88
2022-12-19T11:05:28.411Z,101644.81
2022-12-19T11:08:07.730Z,101633.53
2022-12-19T11:12:16.033Z,101639.78
2022-12-19T11:19:13.300Z,101639.97
2022-12-19T11:21:38.732Z,101639.41
2022-12-19T11:29:19.337Z,101636.06
2022-12-19T11:30:05.170Z,101636.38
2022-12-19T11:30:43.752Z,101628.56
2022-12-19T11:30:46.079Z,101625.09
2022-12-19T11:34:24.876Z,101614.28
2022-12-19T11:37:21.507Z,101618.66
2022-12-19T11:40:40.422Z,101612.75
2022-12-19T11:43:53.440Z,101614.72
2022-12-19T11:46:49.995Z,101616.69
2022-12-19T11:49:39.516Z,101621.97
2022-12-19T11:53:03.607Z,101612.63
2022-12-19T11:55:55.646Z,101603.94
2022-12-19T11:58:31.512Z,101606.63
2022-12-19T12:01:35.888Z,101609.41
2022-12-19T12:04:46.654Z,101605.41
2022-12-19T12:07:41.827Z,101615.72
2022-12-19T12:15:00.043Z,101599.22
2022-12-19T12:22:17.625Z,101602.22
2022-12-19T12:29:39.809Z,101593.75
2022-12-19T12:31:22.735Z,101588.66
2022-12-19T12:31:23.268Z,101588.56
2022-12-19T12:31:45.832Z,101585.38
2022-12-19T12:31:55.329Z,101581.94
2022-12-19T12:35:16.267Z,101585.56
2022-12-19T12:39:24.328Z,101576.13
2022-12-19T12:42:37.009Z,101573.44
2022-12-19T12:45:35.699Z,101578.81
2022-12-19T12:48:31.713Z,101575.69
2022-12-19T12:51:04.550Z,101572.22
2022-12-19T12:53:42.230Z,101568.84
2022-12-19T12:56:17.598Z,101573.22
2022-12-19T12:58:51.737Z,101573.13
2022-12-19T13:01:29.534Z,101577.63
2022-12-19T13:04:31.986Z,101578.50
2022-12-19T13:07:39.062Z,101571.81
2022-12-19T13:10:13.803Z,101568.34
2022-12-19T13:13:22.529Z,101572.84
2022-12-19T13:15:57.737Z,101565.94
2022-12-19T13:18:40.087Z,101563.47
2022-12-19T13:21:12.097Z,101553.81
2022-12-19T13:23:48.145Z,101549.59
2022-12-19T13:26:47.531Z,101561.81
2022-12-19T13:29:33.778Z,101561.13
2022-12-19T13:32:15.781Z,101563.69
2022-12-19T13:36:53.375Z,101559.25
2022-12-19T13:39:56.640Z,101565.63
2022-12-19T13:41:58.937Z,101560.50
2022-12-19T13:44:39.168Z,101558.91
2022-12-19T13:47:18.922Z,101554.50
2022-12-19T13:49:54.879Z,101559.69
2022-12-19T13:52:26.920Z,101551.16
2022-12-19T13:54:59.804Z,101554.84
2022-12-19T13:57:32.403Z,101550.41
2022-12-19T14:00:17.374Z,101549.53
2022-12-19T14:02:54.971Z,101553.09
2022-12-19T14:06:17.899Z,101550.63
2022-12-19T14:08:30.551Z,101557.59
2022-12-19T14:11:56.774Z,101551.56
2022-12-19T14:14:25.723Z,101555.00
2022-12-19T14:17:33.360Z,101560.88
2022-12-19T14:21:10.665Z,101554.88
2022-12-19T14:23:15.599Z,101548.00
2022-12-19T14:28:20.371Z,101545.53
2022-12-19T14:29:00.690Z,101546.50
2022-12-19T14:31:35.696Z,101555.16
2022-12-19T14:34:46.949Z,101549.13
2022-12-19T14:39:03.009Z,101557.72
2022-12-19T14:40:33.752Z,101550.84
2022-12-19T14:43:57.277Z,101552.69
2022-12-19T14:52:51.910Z,101557.19
2022-12-19T14:54:10.124Z,101550.22
2022-12-19T14:54:29.066Z,101552.81
2022-12-19T14:56:16.280Z,101548.63
2022-12-19T14:58:54.462Z,101537.34
2022-12-19T15:01:34.130Z,101532.84
2022-12-19T15:04:48.494Z,101531.16
2022-12-19T15:07:29.349Z,101531.28
2022-12-19T15:11:06.145Z,101531.34
2022-12-19T15:14:55.229Z,101526.09
2022-12-19T15:16:44.648Z,101524.22
2022-12-19T15:19:16.888Z,101526.84
2022-12-19T15:21:49.072Z,101529.50
2022-12-19T15:24:21.033Z,101509.66
2022-12-19T15:26:53.891Z,101512.13
2022-12-19T15:29:26.688Z,101512.31
2022-12-19T15:31:58.716Z,101507.03
2022-12-19T15:34:38.035Z,101511.50
2022-12-19T15:37:15.944Z,101514.25
2022-12-19T15:39:48.067Z,101514.16
2022-12-19T15:42:25.172Z,101501.97
2022-12-19T15:44:59.944Z,101510.63
2022-12-19T15:47:37.281Z,101512.31
2022-12-19T15:50:17.950Z,101502.09
2022-12-19T15:52:53.303Z,101496.75
2022-12-19T15:55:29.236Z,101491.69
2022-12-19T15:58:05.718Z,101495.97
2022-12-19T16:00:37.962Z,101483.81
2022-12-19T16:03:23.721Z,101482.97
2022-12-19T16:05:57.404Z,101482.94
2022-12-19T16:08:29.404Z,101483.81
2022-12-19T16:11:02.315Z,101484.84
2022-12-19T16:13:35.525Z,101492.63
2022-12-19T16:16:15.374Z,101483.81
2022-12-19T16:18:47.987Z,101481.09
2022-12-19T16:21:33.182Z,101488.72
2022-12-19T16:24:06.318Z,101487.00
2022-12-19T16:26:40.533Z,101493.97
2022-12-19T16:29:21.165Z,101489.63
2022-12-19T16:31:54.094Z,101475.78
2022-12-19T16:34:26.450Z,101487.94
2022-12-19T16:36:58.554Z,101485.31
2022-12-19T16:39:30.558Z,101484.44
2022-12-19T16:42:05.108Z,101490.44
2022-12-19T16:44:37.226Z,101487.84
2022-12-19T16:47:17.867Z,101485.00
2022-12-19T16:49:49.997Z,101493.66
2022-12-19T16:52:22.078Z,101481.50
2022-12-19T16:54:54.098Z,101478.81
2022-12-19T16:57:26.191Z,101500.53
2022-12-19T16:59:58.249Z,101491.66
2022-12-19T17:03:01.444Z,101502.91
2022-12-19T17:05:33.781Z,101506.69
2022-12-19T17:08:12.916Z,101512.59
2022-12-19T17:10:46.203Z,101512.50
2022-12-19T17:13:18.467Z,101523.06
2022-12-19T17:15:56.237Z,101527.38
2022-12-19T17:18:36.250Z,101532.59
2022-12-19T17:21:16.642Z,101525.66
2022-12-19T17:23:52.035Z,101520.44
2022-12-19T17:26:23.981Z,101510.88
2022-12-19T17:28:55.937Z,101497.84
2022-12-19T17:31:30.160Z,101507.34
2022-12-19T17:34:02.384Z,101501.28
2022-12-19T17:36:37.799Z,101489.88
2022-12-19T17:39:25.519Z,101489.81
2022-12-19T17:42:21.693Z,101483.78
2022-12-19T17:44:55.845Z,101482.09
2022-12-19T17:47:30.002Z,101470.84
2022-12-19T17:50:02.768Z,101474.22
2022-12-19T17:52:36.248Z,101465.59
2022-12-19T17:55:26.148Z,101461.09
2022-12-19T17:57:59.788Z,101475.06
2022-12-19T18:00:33.916Z,101470.72
2022-12-19T18:03:17.685Z,101468.09
2022-12-19T18:05:52.217Z,101478.47
2022-12-19T18:08:30.540Z,101475.91
2022-12-19T18:11:05.380Z,101472.34
2022-12-19T18:13:37.509Z,101478.34
2022-12-19T18:16:14.351Z,101490.59
2022-12-19T18:18:47.723Z,101499.28
2022-12-19T18:21:24.473Z,101496.66
2022-12-19T18:23:56.899Z,101493.22
2022-12-19T18:26:29.644Z,101485.41
2022-12-19T18:29:01.879Z,101484.63
2022-12-19T18:31:36.624Z,101495.91
2022-12-19T18:34:19.518Z,101497.72
2022-12-19T18:36:54.021Z,101505.47
2022-12-19T18:39:29.250Z,101501.06
2022-12-19T18:42:01.651Z,101501.19
2022-12-19T18:44:34.558Z,101497.91
2022-12-19T18:47:21.833Z,101499.69
2022-12-19T18:49:53.810Z,101494.50
2022-12-19T18:52:25.993Z,101491.13
2022-12-19T18:54:57.985Z,101484.22
2022-12-19T18:57:30.076Z,101477.22
2022-12-19T19:00:02.241Z,101477.34
2022-12-19T19:02:34.479Z,101471.28
2022-12-19T19:05:17.067Z,101483.50
2022-12-19T19:07:49.219Z,101476.63
2022-12-19T19:10:25.631Z,101476.56
2022-12-19T19:13:01.686Z,101486.97
2022-12-19T19:15:41.578Z,101492.13
2022-12-19T19:18:13.895Z,101484.22
2022-12-19T19:20:46.551Z,101487.72
2022-12-19T19:23:18.641Z,101493.56
2022-12-19T19:25:50.656Z,101491.91
2022-12-19T19:28:22.671Z,101496.09
2022-12-19T19:30:55.718Z,101491.69
2022-12-19T19:33:34.506Z,101495.09
2022-12-19T19:36:13.412Z,101491.63
2022-12-19T19:38:50.739Z,101498.44
2022-12-19T19:41:29.558Z,101505.50
2022-12-19T19:44:02.033Z,101496.03
2022-12-19T19:46:33.995Z,101508.16
2022-12-19T19:49:05.984Z,101502.97
2022-12-19T19:51:38.042Z,101505.66
2022-12-19T19:54:16.082Z,101501.47
2022-12-19T19:56:48.905Z,101495.47
2022-12-19T19:59:21.581Z,101501.47
2022-12-19T20:01:54.455Z,101494.44
2022-12-19T20:04:26.859Z,101490.19
2022-12-19T20:06:58.983Z,101479.13
2022-12-19T20:09:31.040Z,101486.06
2022-12-19T20:12:04.095Z,101484.31
2022-12-19T20:14:36.328Z,101487.81
2022-12-19T20:17:08.486Z,101479.91
2022-12-19T20:19:40.613Z,101477.41
2022-12-19T20:22:12.560Z,101480.81
2022-12-19T20:24:44.655Z,101483.44
2022-12-19T20:27:16.715Z,101480.59
2022-12-19T20:29:48.697Z,101483.31
2022-12-19T20:32:20.690Z,101492.09
2022-12-19T20:34:52.739Z,101491.94
2022-12-19T20:37:25.417Z,101491.97
2022-12-19T20:39:57.433Z,101480.56
2022-12-19T20:42:29.525Z,101482.28
2022-12-19T20:45:01.529Z,101492.69
2022-12-19T20:47:33.582Z,101513.56
2022-12-19T20:50:07.680Z,101503.97
2022-12-19T20:52:39.725Z,101501.34
2022-12-19T20:55:11.810Z,101509.03
2022-12-19T20:57:43.857Z,101507.28
2022-12-19T21:00:18.037Z,101515.97
2022-12-19T21:03:26.325Z,101532.53
2022-12-19T21:05:42.520Z,101532.59
2022-12-19T21:08:14.626Z,101531.81
2022-12-19T21:10:46.680Z,101520.50
2022-12-19T21:13:19.325Z,101513.44
2022-12-19T21:16:03.051Z,101512.75
2022-12-19T21:18:37.828Z,101519.81
2022-12-19T21:21:16.117Z,101517.13
2022-12-19T21:23:48.904Z,101508.53
2022-12-19T21:26:23.565Z,101518.09
2022-12-19T21:28:58.158Z,101516.41
2022-12-19T21:31:31.415Z,101517.31
2022-12-19T21:34:03.836Z,101516.53
2022-12-19T21:36:37.076Z,101516.56
2022-12-19T21:39:09.202Z,101517.38
2022-12-19T21:41:41.290Z,101509.44
2022-12-19T21:44:13.432Z,101512.91
2022-12-19T21:46:47.721Z,101517.22
2022-12-19T21:49:20.184Z,101520.75
2022-12-19T21:51:52.343Z,101526.88
2022-12-19T21:54:24.339Z,101528.53
2022-12-19T21:56:56.424Z,101534.53
2022-12-19T21:59:28.941Z,101532.63
2022-12-19T22:02:01.121Z,101516.13
2022-12-19T22:04:33.304Z,101514.28
2022-12-19T22:07:07.424Z,101517.00
2022-12-19T22:09:39.493Z,101513.50
2022-12-19T22:12:13.230Z,101499.72
2022-12-19T22:14:45.656Z,101515.31
2022-12-19T22:17:17.688Z,101510.97
2022-12-19T22:19:49.645Z,101501.41
2022-12-19T22:22:21.624Z,101498.03
2022-12-19T22:24:53.667Z,101509.19
2022-12-19T22:27:25.748Z,101501.47
2022-12-19T22:29:58.003Z,101495.41
2022-12-19T22:32:30.300Z,101504.78
2022-12-19T22:35:02.495Z,101499.66
2022-12-19T22:37:34.714Z,101511.00
2022-12-19T22:40:08.191Z,101503.28
2022-12-19T22:42:40.165Z,101493.63
2022-12-19T22:45:12.340Z,101498.78
2022-12-19T22:47:44.703Z,101497.94
2022-12-19T22:50:16.718Z,101497.16
2022-12-19T22:52:48.815Z,101500.72
2022-12-19T22:55:20.755Z,101488.69
2022-12-19T22:57:52.709Z,101487.84
2022-12-19T23:00:24.746Z,101502.56
2022-12-19T23:02:56.891Z,101493.06
2022-12-19T23:05:29.108Z,101492.25
2022-12-19T23:08:01.128Z,101487.13
2022-12-19T23:10:33.317Z,101494.06
2022-12-19T23:13:05.340Z,101489.78
2022-12-19T23:15:37.383Z,101489.78
2022-12-19T23:18:09.447Z,101488.09
2022-12-19T23:20:41.602Z,101484.69
2022-12-19T23:23:13.591Z,101479.59
2022-12-19T23:25:45.671Z,101482.94
2022-12-19T23:28:17.640Z,101473.34
2022-12-19T23:30:49.759Z,101480.22
2022-12-19T23:33:21.815Z,101476.56
2022-12-19T23:35:53.845Z,101477.59
2022-12-19T23:38:26.457Z,101474.09
2022-12-19T23:41:02.175Z,101478.38
2022-12-19T23:43:36.673Z,101479.34
2022-12-19T23:46:22.133Z,101482.69
2022-12-19T23:48:55.317Z,101469.72
2022-12-19T23:51:28.884Z,101473.25
2022-12-19T23:54:00.903Z,101475.00
2022-12-19T23:56:33.391Z,101466.38
2022-12-19T23:59:05.753Z,101475.22
